sensor_id;sensor_type;location;lat;lon;timestamp;temperature;humidity
49441;DHT22;35317;51.978;6.296;2023-04-01T00:04:25;10.90;99.90
49441;DHT22;35317;51.978;6.296;2023-04-01T00:09:25;10.80;99.90
49441;DHT22;35317;51.978;6.296;2023-04-01T00:14:26;10.80;99.90
49441;DHT22;35317;51.978;6.296;2023-04-01T00:19:27;10.80;99.90
49441;DHT22;35317;51.978;6.296;2023-04-01T00:24:29;10.80;99.90
49441;DHT22;35317;51.978;6.296;2023-04-01T00:29:29;10.80;99.90
49441;DHT22;35317;51.978;6.296;2023-04-01T00:34:30;10.80;99.90
49441;DHT22;35317;51.978;6.296;2023-04-01T00:39:32;10.70;99.90
49441;DHT22;35317;51.978;6.296;2023-04-01T00:44:34;10.70;99.90
49441;DHT22;35317;51.978;6.296;2023-04-01T00:49:40;10.70;99.90
49441;DHT22;35317;51.978;6.296;2023-04-01T00:54:46;10.70;99.90
49441;DHT22;35317;51.978;6.296;2023-04-01T00:59:50;10.70;99.90
49441;DHT22;35317;51.978;6.296;2023-04-01T01:04:53;10.60;99.90
49441;DHT22;35317;51.978;6.296;2023-04-01T01:10:02;10.70;99.90
49441;DHT22;35317;51.978;6.296;2023-04-01T01:15:53;10.60;99.90
49441;DHT22;35317;51.978;6.296;2023-04-01T01:37:19;10.60;99.90
49441;DHT22;35317;51.978;6.296;2023-04-01T01:42:24;10.60;99.90
49441;DHT22;35317;51.978;6.296;2023-04-01T01:47:26;10.60;99.90
49441;DHT22;35317;51.978;6.296;2023-04-01T01:52:29;10.60;99.90
49441;DHT22;35317;51.978;6.296;2023-04-01T01:57:33;10.60;99.90
49441;DHT22;35317;51.978;6.296;2023-04-01T02:02:35;10.60;99.90
49441;DHT22;35317;51.978;6.296;2023-04-01T02:07:37;10.60;99.90
49441;DHT22;35317;51.978;6.296;2023-04-01T02:12:42;10.70;99.90
49441;DHT22;35317;51.978;6.296;2023-04-01T02:17:46;10.70;99.90
49441;DHT22;35317;51.978;6.296;2023-04-01T02:22:50;10.70;99.90
49441;DHT22;35317;51.978;6.296;2023-04-01T02:27:52;10.70;99.90
49441;DHT22;35317;51.978;6.296;2023-04-01T02:32:55;10.70;99.90
49441;DHT22;35317;51.978;6.296;2023-04-01T02:37:57;10.70;99.90
49441;DHT22;35317;51.978;6.296;2023-04-01T02:42:58;10.70;99.90
49441;DHT22;35317;51.978;6.296;2023-04-01T02:47:59;10.70;99.90
49441;DHT22;35317;51.978;6.296;2023-04-01T02:53:00;10.70;99.90
49441;DHT22;35317;51.978;6.296;2023-04-01T02:58:04;10.70;99.90
49441;DHT22;35317;51.978;6.296;2023-04-01T03:03:04;10.70;99.90
49441;DHT22;35317;51.978;6.296;2023-04-01T03:08:05;10.70;99.90
49441;DHT22;35317;51.978;6.296;2023-04-01T03:13:07;10.70;99.90
49441;DHT22;35317;51.978;6.296;2023-04-01T03:18:07;10.70;99.90
49441;DHT22;35317;51.978;6.296;2023-04-01T03:23:08;10.70;99.90
49441;DHT22;35317;51.978;6.296;2023-04-01T03:28:09;10.70;99.90
49441;DHT22;35317;51.978;6.296;2023-04-01T03:33:10;10.70;99.90
49441;DHT22;35317;51.978;6.296;2023-04-01T03:38:11;10.70;99.90
49441;DHT22;35317;51.978;6.296;2023-04-01T03:43:12;10.60;99.90
49441;DHT22;35317;51.978;6.296;2023-04-01T03:48:14;10.60;99.90
49441;DHT22;35317;51.978;6.296;2023-04-01T03:53:15;10.60;99.90
49441;DHT22;35317;51.978;6.296;2023-04-01T03:58:16;10.60;99.90
49441;DHT22;35317;51.978;6.296;2023-04-01T04:03:16;10.60;99.90
49441;DHT22;35317;51.978;6.296;2023-04-01T04:08:18;10.60;99.90
49441;DHT22;35317;51.978;6.296;2023-04-01T04:13:18;10.60;99.90
49441;DHT22;35317;51.978;6.296;2023-04-01T04:18:19;10.60;99.90
49441;DHT22;35317;51.978;6.296;2023-04-01T04:23:20;10.60;99.90
49441;DHT22;35317;51.978;6.296;2023-04-01T04:28:21;10.60;99.90
49441;DHT22;35317;51.978;6.296;2023-04-01T04:33:23;10.60;99.90
49441;DHT22;35317;51.978;6.296;2023-04-01T04:38:24;10.60;99.90
49441;DHT22;35317;51.978;6.296;2023-04-01T04:43:25;10.50;99.90
49441;DHT22;35317;51.978;6.296;2023-04-01T04:48:26;10.50;99.90
49441;DHT22;35317;51.978;6.296;2023-04-01T04:53:27;10.50;99.90
49441;DHT22;35317;51.978;6.296;2023-04-01T04:58:27;10.50;99.90
49441;DHT22;35317;51.978;6.296;2023-04-01T05:03:28;10.50;99.90
49441;DHT22;35317;51.978;6.296;2023-04-01T05:08:29;10.40;99.90
49441;DHT22;35317;51.978;6.296;2023-04-01T05:13:30;10.40;99.90
49441;DHT22;35317;51.978;6.296;2023-04-01T05:18:40;10.40;99.90
49441;DHT22;35317;51.978;6.296;2023-04-01T05:23:42;10.40;99.90
49441;DHT22;35317;51.978;6.296;2023-04-01T05:28:45;10.40;99.90
49441;DHT22;35317;51.978;6.296;2023-04-01T05:33:46;10.40;99.90
49441;DHT22;35317;51.978;6.296;2023-04-01T05:38:47;10.40;99.90
49441;DHT22;35317;51.978;6.296;2023-04-01T05:43:48;10.40;99.90
49441;DHT22;35317;51.978;6.296;2023-04-01T05:48:49;10.40;99.90
49441;DHT22;35317;51.978;6.296;2023-04-01T05:53:50;10.40;99.90
49441;DHT22;35317;51.978;6.296;2023-04-01T05:58:52;10.40;99.90
49441;DHT22;35317;51.978;6.296;2023-04-01T06:03:54;10.40;99.90
49441;DHT22;35317;51.978;6.296;2023-04-01T06:08:57;10.40;99.90
49441;DHT22;35317;51.978;6.296;2023-04-01T06:21:02;10.40;99.90
49441;DHT22;35317;51.978;6.296;2023-04-01T06:25:51;10.40;99.90
49441;DHT22;35317;51.978;6.296;2023-04-01T07:03:57;10.70;99.90
49441;DHT22;35317;51.978;6.296;2023-04-01T07:09:04;10.70;99.90
49441;DHT22;35317;51.978;6.296;2023-04-01T07:14:13;10.70;99.90
49441;DHT22;35317;51.978;6.296;2023-04-01T07:19:50;10.80;99.90
49441;DHT22;35317;51.978;6.296;2023-04-01T07:24:53;10.80;99.90
49441;DHT22;35317;51.978;6.296;2023-04-01T07:29:57;10.90;99.90
49441;DHT22;35317;51.978;6.296;2023-04-01T07:41:03;11.10;99.90
49441;DHT22;35317;51.978;6.296;2023-04-01T07:46:45;11.20;99.90
49441;DHT22;35317;51.978;6.296;2023-04-01T07:57:38;11.30;99.90
49441;DHT22;35317;51.978;6.296;2023-04-01T08:19:52;11.30;99.90
49441;DHT22;35317;51.978;6.296;2023-04-01T08:24:56;11.30;99.90
49441;DHT22;35317;51.978;6.296;2023-04-01T08:30:20;11.30;99.90
49441;DHT22;35317;51.978;6.296;2023-04-01T08:35:34;11.30;99.90
49441;DHT22;35317;51.978;6.296;2023-04-01T08:46:29;11.40;99.90
49441;DHT22;35317;51.978;6.296;2023-04-01T08:52:01;11.40;99.90
49441;DHT22;35317;51.978;6.296;2023-04-01T08:57:22;11.40;99.90
49441;DHT22;35317;51.978;6.296;2023-04-01T09:02:59;11.40;99.90
49441;DHT22;35317;51.978;6.296;2023-04-01T09:09:06;11.40;99.90
49441;DHT22;35317;51.978;6.296;2023-04-01T09:14:46;11.40;99.90
49441;DHT22;35317;51.978;6.296;2023-04-01T09:20:09;11.50;99.90
49441;DHT22;35317;51.978;6.296;2023-04-01T09:25:44;11.60;99.90
49441;DHT22;35317;51.978;6.296;2023-04-01T09:36:12;11.90;99.90
49441;DHT22;35317;51.978;6.296;2023-04-01T09:46:49;12.40;99.90
49441;DHT22;35317;51.978;6.296;2023-04-01T09:52:18;12.60;99.90
49441;DHT22;35317;51.978;6.296;2023-04-01T10:26:33;13.90;99.90
49441;DHT22;35317;51.978;6.296;2023-04-01T10:37:15;14.20;99.90
49441;DHT22;35317;51.978;6.296;2023-04-01T10:54:16;13.90;99.90
49441;DHT22;35317;51.978;6.296;2023-04-01T11:22:51;13.50;99.90
49441;DHT22;35317;51.978;6.296;2023-04-01T11:33:54;13.90;99.90
49441;DHT22;35317;51.978;6.296;2023-04-01T11:39:24;14.00;99.90
49441;DHT22;35317;51.978;6.296;2023-04-01T11:50:37;14.10;99.90
49441;DHT22;35317;51.978;6.296;2023-04-01T12:01:44;14.10;99.90
49441;DHT22;35317;51.978;6.296;2023-04-01T12:12:32;13.90;99.90
49441;DHT22;35317;51.978;6.296;2023-04-01T12:18:11;13.70;99.90
49441;DHT22;35317;51.978;6.296;2023-04-01T12:45:42;13.70;99.90
49441;DHT22;35317;51.978;6.296;2023-04-01T13:07:46;13.00;99.90
49441;DHT22;35317;51.978;6.296;2023-04-01T13:24:53;13.00;99.90
49441;DHT22;35317;51.978;6.296;2023-04-01T13:46:08;12.90;99.90
49441;DHT22;35317;51.978;6.296;2023-04-01T14:25:41;11.80;99.90
49441;DHT22;35317;51.978;6.296;2023-04-01T14:36:59;11.90;99.90
49441;DHT22;35317;51.978;6.296;2023-04-01T14:58:47;12.00;99.90
49441;DHT22;35317;51.978;6.296;2023-04-01T15:15:30;12.00;99.90
49441;DHT22;35317;51.978;6.296;2023-04-01T15:20:52;12.00;99.90
49441;DHT22;35317;51.978;6.296;2023-04-01T15:31:35;12.10;99.90
49441;DHT22;35317;51.978;6.296;2023-04-01T15:36:59;12.20;99.90
49441;DHT22;35317;51.978;6.296;2023-04-01T15:42:28;12.10;99.90
49441;DHT22;35317;51.978;6.296;2023-04-01T15:48:01;12.10;99.90
49441;DHT22;35317;51.978;6.296;2023-04-01T15:53:49;12.00;99.90
49441;DHT22;35317;51.978;6.296;2023-04-01T15:59:13;12.00;99.90
49441;DHT22;35317;51.978;6.296;2023-04-01T16:04:48;12.00;99.90
49441;DHT22;35317;51.978;6.296;2023-04-01T16:15:34;11.90;99.90
49441;DHT22;35317;51.978;6.296;2023-04-01T16:21:06;11.90;99.90
49441;DHT22;35317;51.978;6.296;2023-04-01T16:26:20;11.80;99.90
49441;DHT22;35317;51.978;6.296;2023-04-01T16:31:53;11.80;99.90
49441;DHT22;35317;51.978;6.296;2023-04-01T16:37:09;11.80;99.90
49441;DHT22;35317;51.978;6.296;2023-04-01T16:47:53;11.60;99.90
49441;DHT22;35317;51.978;6.296;2023-04-01T16:53:14;11.60;99.90
49441;DHT22;35317;51.978;6.296;2023-04-01T16:58:26;11.50;99.90
49441;DHT22;35317;51.978;6.296;2023-04-01T17:03:29;11.40;99.90
49441;DHT22;35317;51.978;6.296;2023-04-01T17:14:04;11.20;99.90
49441;DHT22;35317;51.978;6.296;2023-04-01T17:24:36;11.10;99.90
49441;DHT22;35317;51.978;6.296;2023-04-01T17:35:35;10.90;99.90
49441;DHT22;35317;51.978;6.296;2023-04-01T17:52:32;10.60;99.90
49441;DHT22;35317;51.978;6.296;2023-04-01T18:19:27;10.20;99.90
49441;DHT22;35317;51.978;6.296;2023-04-01T18:35:52;9.90;99.90
49441;DHT22;35317;51.978;6.296;2023-04-01T18:47:15;9.80;99.90
49441;DHT22;35317;51.978;6.296;2023-04-01T18:52:25;9.80;99.90
49441;DHT22;35317;51.978;6.296;2023-04-01T18:58:06;9.70;99.90
49441;DHT22;35317;51.978;6.296;2023-04-01T19:03:28;9.70;99.90
49441;DHT22;35317;51.978;6.296;2023-04-01T19:08:38;9.70;99.90
49441;DHT22;35317;51.978;6.296;2023-04-01T19:25:02;9.50;99.90
49441;DHT22;35317;51.978;6.296;2023-04-01T19:30:49;9.50;99.90
49441;DHT22;35317;51.978;6.296;2023-04-01T19:41:44;9.40;99.90
49441;DHT22;35317;51.978;6.296;2023-04-01T19:46:53;9.30;99.90
49441;DHT22;35317;51.978;6.296;2023-04-01T19:57:50;9.20;99.90
49441;DHT22;35317;51.978;6.296;2023-04-01T20:18:59;9.10;99.90
49441;DHT22;35317;51.978;6.296;2023-04-01T20:40:27;8.90;99.90
49441;DHT22;35317;51.978;6.296;2023-04-01T20:45:42;8.90;99.90
49441;DHT22;35317;51.978;6.296;2023-04-01T20:51:06;8.80;99.90
49441;DHT22;35317;51.978;6.296;2023-04-01T21:01:44;8.70;99.90
49441;DHT22;35317;51.978;6.296;2023-04-01T21:12:51;8.50;99.90
49441;DHT22;35317;51.978;6.296;2023-04-01T21:28:47;8.40;99.90
49441;DHT22;35317;51.978;6.296;2023-04-01T21:34:28;8.30;99.90
49441;DHT22;35317;51.978;6.296;2023-04-01T22:06:42;8.10;99.90
49441;DHT22;35317;51.978;6.296;2023-04-01T22:11:58;8.00;99.90
49441;DHT22;35317;51.978;6.296;2023-04-01T22:17:05;7.90;99.90
49441;DHT22;35317;51.978;6.296;2023-04-01T22:27:53;7.80;99.90
49441;DHT22;35317;51.978;6.296;2023-04-01T22:33:11;7.80;99.90
49441;DHT22;35317;51.978;6.296;2023-04-01T22:43:44;7.70;99.90
49441;DHT22;35317;51.978;6.296;2023-04-01T22:54:29;7.70;99.90
49441;DHT22;35317;51.978;6.296;2023-04-01T22:59:50;7.70;99.90
49441;DHT22;35317;51.978;6.296;2023-04-01T23:04:57;7.70;99.90
49441;DHT22;35317;51.978;6.296;2023-04-01T23:10:02;7.70;99.90
49441;DHT22;35317;51.978;6.296;2023-04-01T23:15:04;7.60;99.90
49441;DHT22;35317;51.978;6.296;2023-04-01T23:41:16;7.40;99.90
49441;DHT22;35317;51.978;6.296;2023-04-01T23:46:19;7.30;99.90
49441;DHT22;35317;51.978;6.296;2023-04-01T23:51:29;7.20;99.90
49441;DHT22;35317;51.978;6.296;2023-04-01T23:56:43;7.20;99.90
